Flight Track Log - Related Links

Times and Time Zones

All times are in EDT time to prevent confusion due to time zone crossing. See the N104LR flight status page for this flight to view local times or setup timezone preferences in your user account.

Time Position Orientation Groundspeed Altitude Reporting Facility
EDT Latitude Longitude Course Direction KTS MPH feet Rate Location/Type
Mon 04:55:18 PM 40.1053 -76.8014 229° Southwest 183 211 7,700  Level New York Center
Mon 04:56:15 PM 40.0561 -76.7861 167° South 163 188 9,500 1,706 Climbing New York Center
Mon 04:58:42 PM 39.8667 -76.7106 163° South 291 335 13,500 1,615 Climbing Washington Center
Mon 04:59:43 PM 39.7944 -76.6447 145° Southeast 310 357 15,100 1,550 Climbing Washington Center
Mon 05:00:00 PM 39.7098 -76.6603 229° Southwest  Level FlightAware Approximate
Mon 05:00:42 PM 39.7131 -76.6650 191° South 290 334 16,600  Level Washington Center
Mon 05:01:42 PM 39.6539 -76.7478 227° Southwest 273 314 18,100 1,300 Climbing Washington Center
Mon 05:02:42 PM 39.5969 -76.8331 229° Southwest 292 336 19,200 1,289 Climbing Washington Center
Mon 05:03:43 PM 39.5356 -76.9156 226° Southwest 311 358 20,700 1,350 Climbing Washington Center
Mon 05:04:42 PM 39.4722 -76.9975 225° Southwest 323 372 21,900 1,109 Climbing Washington Center
Mon 05:05:42 PM 39.3922 -77.0606 211° Southwest 333 383 22,900 942 Climbing Washington Center
Mon 05:06:43 PM 39.3206 -77.1208 213° Southwest 338 389 23,800 1,000 Climbing Washington Center
Mon 05:07:42 PM 39.2383 -77.1861 212° Southwest 348 400 24,900 1,100 Climbing Washington Center
Mon 05:08:43 PM 39.1583 -77.2486 211° Southwest 348 400 26,000 1,091 Climbing Washington Center
Mon 05:09:43 PM 39.0844 -77.3111 213° Southwest 342 394 27,100 1,109 Climbing Washington Center
Mon 05:10:42 PM 39.0064 -77.3733 212° Southwest 342 394 28,200 1,100 Climbing Washington Center
Mon 05:11:43 PM 38.9347 -77.4275 210° Southwest 328 377 29,300 1,100 Climbing Washington Center
Mon 05:12:42 PM 38.8672 -77.4819 212° Southwest 316 364 30,400 1,109 Climbing Washington Center
Mon 05:13:42 PM 38.7997 -77.5333 211° Southwest 297 342 31,500 1,091 Climbing Washington Center
Mon 05:14:43 PM 38.7342 -77.5850 212° Southwest 292 336 32,600 1,091 Climbing Washington Center
Mon 05:15:43 PM 38.6731 -77.6364 213° Southwest 281 323 33,700 1,109 Climbing Washington Center
Mon 05:16:42 PM 38.6181 -77.6828 213° Southwest 267 307 34,800 1,109 Climbing Washington Center
Mon 05:17:42 PM 38.5589 -77.7289 211° Southwest 262 302 35,900 600 Climbing Washington Center
Mon 05:18:42 PM 38.5036 -77.7806 216° Southwest 256 295 36,000 50 Climbing Washington Center
Mon 05:19:43 PM 38.4422 -77.8369 216° Southwest 266 306 36,000  Level Washington Center
Mon 05:20:43 PM 38.3806 -77.8961 217° Southwest 276 318 36,000  Level Washington Center
Mon 05:21:43 PM 38.3125 -77.9600 216° Southwest 288 331 36,000  Level Washington Center
Mon 05:22:43 PM 38.2447 -78.0214 215° Southwest 300 345 36,000  Level Washington Center
Mon 05:23:42 PM 38.1744 -78.0878 217° Southwest 306 352 36,000  Level Washington Center
Mon 05:24:43 PM 38.1064 -78.1514 216° Southwest 311 358 36,000  Level Washington Center
Mon 05:25:43 PM 38.0361 -78.2175 217° Southwest 319 367 36,000  Level Washington Center
Mon 05:26:42 PM 37.9594 -78.2833 214° Southwest 319 367 36,000  Level Washington Center
Mon 05:27:43 PM 37.8892 -78.3519 218° Southwest 326 375 36,000  Level Washington Center
Mon 05:28:43 PM 37.8167 -78.4150 214° Southwest 321 369 36,000  Level Washington Center
Mon 05:29:43 PM 37.7444 -78.4781 215° Southwest 321 369 36,000  Level Washington Center
Mon 05:30:43 PM 37.6803 -78.5411 218° Southwest 321 369 36,000  Level Washington Center
Mon 05:31:43 PM 37.6058 -78.6039 214° Southwest 321 369 36,000  Level Washington Center
Mon 05:32:43 PM 37.5331 -78.6717 216° Southwest 321 369 36,000  Level Washington Center
Mon 05:33:43 PM 37.4583 -78.7367 215° Southwest 321 369 36,000  Level Washington Center
Mon 05:34:43 PM 37.3772 -78.8092 215° Southwest 321 369 36,000  Level Washington Center
Mon 05:35:43 PM 37.3003 -78.8736 214° Southwest 326 375 36,000  Level Washington Center
Mon 05:36:43 PM 37.2275 -78.9436 217° Southwest 326 375 36,000  Level Washington Center
Mon 05:37:42 PM 37.1525 -79.0081 214° Southwest 326 375 36,000  Level Washington Center
Mon 05:38:43 PM 37.0756 -79.0750 215° Southwest 331 381 36,000  Level Washington Center
Mon 05:39:43 PM 37.0092 -79.1344 216° Southwest 331 381 36,000  Level Washington Center
Mon 05:40:43 PM 36.9319 -79.2036 216° Southwest 336 387 36,000  Level Washington Center
Mon 05:41:43 PM 36.8569 -79.2675 214° Southwest 336 387 36,000  Level Washington Center
Mon 05:42:43 PM 36.7819 -79.3342 215° Southwest 341 392 36,000  Level Washington Center
Mon 05:43:43 PM 36.6961 -79.4078 215° Southwest 341 392 36,000  Level Washington Center
Mon 05:44:42 PM 36.6231 -79.4739 216° Southwest 341 392 36,000  Level Washington Center
Mon 05:45:42 PM 36.5458 -79.5425 216° Southwest 341 392 36,000  Level Washington Center
Mon 05:47:17 PM 36.4239 -79.6447 214° Southwest 340 391 36,000  Level Atlanta Center
Mon 05:48:17 PM 36.3492 -79.7106 215° Southwest 340 391 36,000  Level Atlanta Center
Mon 05:49:17 PM 36.2781 -79.7711 214° Southwest 340 391 36,000  Level Atlanta Center
Mon 05:50:17 PM 36.2014 -79.8394 216° Southwest 340 391 36,000  Level Atlanta Center
Mon 05:51:17 PM 36.1200 -79.9056 213° Southwest 340 391 36,000  Level Atlanta Center
Mon 05:52:17 PM 36.0408 -79.9686 213° Southwest 340 391 36,000  Level Atlanta Center
Mon 05:53:17 PM 35.9444 -80.0222 204° Southwest 340 391 36,000  Level Atlanta Center
Mon 05:54:17 PM 35.8586 -80.0700 204° Southwest 340 391 36,000  Level Atlanta Center
Mon 05:55:17 PM 35.7681 -80.1128 201° Southwest 345 397 36,000  Level Atlanta Center
Mon 05:56:17 PM 35.6775 -80.1528 200° South 350 403 36,000  Level Atlanta Center
Mon 05:57:17 PM 35.5997 -80.2000 206° Southwest 350 403 36,000  Level Atlanta Center
Mon 05:58:17 PM 35.5094 -80.2475 203° Southwest 350 403 36,000  Level Atlanta Center
Mon 05:59:17 PM 35.4128 -80.2953 202° Southwest 350 403 36,000  Level Atlanta Center
Mon 06:00:17 PM 35.3225 -80.3403 202° Southwest 350 403 36,000  Level Atlanta Center
Mon 06:01:17 PM 35.2319 -80.3825 201° Southwest 352 405 36,000  Level Atlanta Center
Mon 06:02:17 PM 35.1436 -80.4294 203° Southwest 352 405 36,000  Level Atlanta Center
Mon 06:04:33 PM 34.9408 -80.5272 202° Southwest 358 412 36,000  Level Jacksonville Center
Mon 06:05:32 PM 34.8519 -80.5703 202° Southwest 358 412 36,000  Level Jacksonville Center
Mon 06:06:33 PM 34.7569 -80.6208 204° Southwest 352 405 36,000  Level Jacksonville Center
Mon 06:07:33 PM 34.6639 -80.6686 203° Southwest 347 399 36,000  Level Jacksonville Center
Mon 06:08:32 PM 34.5728 -80.7064 199° South 357 411 36,000  Level Jacksonville Center
Mon 06:09:32 PM 34.4775 -80.7542 202° Southwest 370 426 36,000  Level Jacksonville Center
Mon 06:10:33 PM 34.3844 -80.8042 204° Southwest 355 409 36,000  Level Jacksonville Center
Mon 06:11:32 PM 34.2936 -80.8492 202° Southwest 361 415 36,000  Level Jacksonville Center
Mon 06:12:32 PM 34.2067 -80.8914 202° Southwest 354 407 36,000  Level Jacksonville Center
Mon 06:13:32 PM 34.1133 -80.9336 201° Southwest 354 407 36,000  Level Jacksonville Center
Mon 06:14:33 PM 34.0222 -80.9783 202° Southwest 359 413 36,000  Level Jacksonville Center
Mon 06:15:32 PM 33.9269 -81.0256 202° Southwest 364 419 36,000  Level Jacksonville Center
Mon 06:16:32 PM 33.8397 -81.0622 199° South 369 425 36,000  Level Jacksonville Center
Mon 06:17:32 PM 33.7383 -81.1144 203° Southwest 369 425 36,000  Level Jacksonville Center
Mon 06:18:32 PM 33.6450 -81.1586 202° Southwest 369 425 36,000  Level Jacksonville Center
Mon 06:19:33 PM 33.5517 -81.2053 203° Southwest 369 425 36,000  Level Jacksonville Center
Mon 06:20:32 PM 33.4667 -81.2492 203° Southwest 374 430 36,000  Level Jacksonville Center
Mon 06:21:32 PM 33.3714 -81.2958 202° Southwest 374 430 36,000  Level Jacksonville Center
Mon 06:22:32 PM 33.2781 -81.3397 201° Southwest 374 430 36,000  Level Jacksonville Center
Mon 06:23:32 PM 33.1825 -81.3836 201° Southwest 374 430 36,000  Level Jacksonville Center
Mon 06:24:32 PM 33.0869 -81.4297 202° Southwest 374 430 36,000  Level Jacksonville Center
Mon 06:25:33 PM 32.9917 -81.4783 203° Southwest 374 430 36,000  Level Jacksonville Center
Mon 06:26:32 PM 32.8961 -81.5244 202° Southwest 374 430 36,000  Level Jacksonville Center
Mon 06:27:33 PM 32.8025 -81.5678 201° Southwest 374 430 36,000  Level Jacksonville Center
Mon 06:28:33 PM 32.7092 -81.6111 201° Southwest 374 430 36,000  Level Jacksonville Center
Mon 06:29:32 PM 32.6053 -81.6644 203° Southwest 374 430 36,000  Level Jacksonville Center
Mon 06:30:32 PM 32.5200 -81.7025 201° Southwest 380 437 36,000  Level Jacksonville Center
Mon 06:31:33 PM 32.4139 -81.7531 202° Southwest 374 430 36,000  Level Jacksonville Center
Mon 06:32:32 PM 32.3289 -81.7936 202° Southwest 374 430 36,000  Level Jacksonville Center
Mon 06:33:32 PM 32.2228 -81.8439 202° Southwest 374 430 36,000  Level Jacksonville Center
Mon 06:34:33 PM 32.1250 -81.8917 202° Southwest 374 430 36,000  Level Jacksonville Center
Mon 06:35:32 PM 32.0397 -81.9319 202° Southwest 374 430 36,000  Level Jacksonville Center
Mon 06:36:32 PM 31.9314 -81.9819 201° Southwest 374 430 36,000  Level Jacksonville Center
Mon 06:37:33 PM 31.8461 -82.0219 202° Southwest 374 430 36,000  Level Jacksonville Center
Mon 06:38:32 PM 31.7381 -82.0717 201° Southwest 374 430 36,000  Level Jacksonville Center
Mon 06:39:32 PM 31.6422 -82.1164 202° Southwest 382 440 36,000 50 Level Jacksonville Center
Mon 06:40:32 PM 31.5464 -82.1636 203° Southwest 376 433 36,100 350 Climbing Jacksonville Center
Mon 06:41:32 PM 31.4506 -82.2106 203° Southwest 376 433 36,700 450 Climbing Jacksonville Center
Mon 06:42:32 PM 31.3611 -82.2600 205° Southwest 359 413 37,000 149 Climbing Jacksonville Center
Mon 06:43:33 PM 31.2758 -82.3189 211° Southwest 365 420 37,000  Level Jacksonville Center
Mon 06:44:32 PM 31.1967 -82.3703 209° Southwest 373 429 37,000  Level Jacksonville Center
Mon 06:45:33 PM 31.1072 -82.4317 210° Southwest 373 429 37,000  Level Jacksonville Center
Mon 06:46:33 PM 31.0156 -82.4925 210° Southwest 373 429 37,000  Level Jacksonville Center
Mon 06:47:33 PM 30.9322 -82.5558 213° Southwest 373 429 37,000  Level Jacksonville Center
Mon 06:48:33 PM 30.8550 -82.6361 222° Southwest 373 429 37,000  Level Jacksonville Center
Mon 06:49:32 PM 30.7781 -82.7136 221° Southwest 373 429 37,000  Level Jacksonville Center
Mon 06:50:33 PM 30.7028 -82.7936 222° Southwest 373 429 37,000 -200 Level Jacksonville Center
Mon 06:51:32 PM 30.6089 -82.8442 205° Southwest 373 429 36,600 -400 Descending Jacksonville Center
Mon 06:52:33 PM 30.4983 -82.8081 164° South 359 413 36,200 -450 Descending Jacksonville Center
Mon 06:53:32 PM 30.4208 -82.6925 128° Southeast 365 420 35,700 -504 Descending Jacksonville Center
Mon 06:54:32 PM 30.3456 -82.5725 126° Southeast 411 473 35,200 -347 Descending Jacksonville Center
Mon 06:55:33 PM 30.2719 -82.4547 126° Southeast 432 497 35,000 -100 Descending Jacksonville Center
Mon 06:56:32 PM 30.1633 -82.4336 170° South 395 455 35,000  Level Jacksonville Center
Mon 06:57:32 PM 30.0739 -82.4989 212° Southwest 337 388 35,000  Level Jacksonville Center
Mon 06:58:33 PM 29.9883 -82.5617 212° Southwest 347 399 35,000  Level Jacksonville Center
Mon 06:59:32 PM 29.8989 -82.6289 213° Southwest 368 423 35,000  Level Jacksonville Center
Mon 07:00:32 PM 29.8092 -82.7011 215° Southwest 390 449 35,000  Level Jacksonville Center
Mon 07:01:33 PM 29.7175 -82.7683 212° Southwest 396 456 35,000  Level Jacksonville Center
Mon 07:02:33 PM 29.6256 -82.8353 212° Southwest 396 456 35,000  Level Jacksonville Center
Mon 07:03:32 PM 29.5358 -82.9044 214° Southwest 396 456 35,000  Level Jacksonville Center
Mon 07:04:33 PM 29.4336 -82.9761 211° Southwest 396 456 35,000 -150 Level Jacksonville Center
Mon 07:05:32 PM 29.3417 -83.0428 212° Southwest 396 456 34,700 -403 Descending Jacksonville Center
Mon 07:06:32 PM 29.2475 -83.1139 213° Southwest 396 456 34,200 -496 Descending Jacksonville Center
Mon 07:07:33 PM 29.1533 -83.1825 212° Southwest 401 461 33,700 -500 Descending Jacksonville Center
Mon 07:08:32 PM 29.0594 -83.2514 213° Southwest 406 467 33,200 -353 Descending Jacksonville Center
Mon 07:09:32 PM 28.9383 -83.2556 182° South 406 467 33,000 -347 Descending Jacksonville Center
Mon 07:10:33 PM 28.8194 -83.2219 166° South 421 484 32,500 -500 Descending Jacksonville Center
Mon 07:11:32 PM 28.6964 -83.1883 167° South 433 498 32,000 -504 Descending Jacksonville Center
Mon 07:12:32 PM 28.5775 -83.1550 166° South 439 505 31,500 -477 Descending Jacksonville Center
Mon 07:14:03 PM 28.4022 -83.1094 167° South 458 527 30,800 -477 Descending Miami Center
Mon 07:15:03 PM 28.2808 -83.0744 166° South 458 527 30,300 -500 Descending Miami Center
Mon 07:16:03 PM 28.1611 -83.0419 167° South 453 521 29,800 -500 Descending Miami Center
Mon 07:17:03 PM 28.0419 -83.0050 165° South 448 516 29,300 -500 Descending Miami Center
Mon 07:18:03 PM 27.9272 -82.9542 159° South 448 516 28,800 -500 Descending Miami Center
Mon 07:19:03 PM 27.8128 -82.8986 157° South 448 516 28,300 -550 Descending Miami Center
Mon 07:20:03 PM 27.6900 -82.8406 157° South 447 514 27,700 -550 Descending Miami Center
Mon 07:21:03 PM 27.5967 -82.7797 150° Southeast 442 509 27,200 -850 Descending Miami Center
Mon 07:22:03 PM 27.4786 -82.7056 151° Southeast 437 503 26,000 -1,750 Descending Miami Center
Mon 07:23:03 PM 27.3706 -82.6417 152° Southeast 437 503 23,700 -2,350 Descending Miami Center
Mon 07:24:03 PM 27.2731 -82.5783 150° Southeast 425 489 21,300 -2,350 Descending Miami Center
Mon 07:25:03 PM 27.1772 -82.5200 152° Southeast 407 468 19,000 -2,400 Descending Miami Center
Mon 07:26:03 PM 27.0814 -82.4572 150° Southeast 400 460 16,500 -2,500 Descending Miami Center
Mon 07:27:03 PM 26.9936 -82.4064 153° Southeast 385 443 14,000 -2,500 Descending Miami Center
Mon 07:28:03 PM 26.9122 -82.3536 150° Southeast 355 409 11,500 -1,500 Descending Miami Center
Mon 07:29:03 PM 26.8369 -82.3058 150° Southeast 330 380 11,000 -850 Descending Miami Center
Mon 07:30:03 PM 26.7675 -82.2631 151° Southeast 305 351 9,800 -1,100 Descending Miami Center
Mon 07:31:03 PM 26.7008 -82.2064 143° Southeast 294 338 8,800 -950 Descending Miami Center
Mon 07:32:03 PM 26.6336 -82.1547 146° Southeast 294 338 7,900 -650 Descending Miami Center
Mon 07:33:03 PM 26.5728 -82.1056 144° Southeast 288 331 7,500 -350 Descending Miami Center
Mon 07:34:03 PM 26.5119 -82.0589 146° Southeast 281 323 7,200 -500 Descending Miami Center
Mon 07:35:03 PM 26.4708 -81.9828 121° Southeast 276 318 6,500 -700 Descending Miami Center
Mon 07:37:00 PM 26.4647 -81.8477 56° Northeast  Level FlightAware Approximate
Mon 07:44:00 PM 26.5333 -81.7500 50° Northeast  Level FlightAware Approximate
Mon 07:45:00 PM 26.5362 -81.7552 50° Northeast  Level Estimated
Mon 07:46:00 PM 26.5333 -81.7500 50° Northeast  Level FlightAware Approximate
Mon 07:47:00 PM 26.5362 -81.7552 50° Northeast  Level Estimated
Mon 07:48:00 PM 26.5333 -81.7500 50° Northeast  Level FlightAware Approximate
Mon 07:49:00 PM 26.5362 -81.7552 50° Northeast  Level Estimated

Login

Don't have an account? Register now (free) for customized features, flight alerts, and more!